Fure West — OZ2100 — position and weather

sailwx.info

Track history (hours):
 
Tides and Currents Weather Stations Pressure Air Temp Water Temp Dewpoint Dewpoint Depression Visibility Wind Speed Wind Dir Waves Ship Positions

Fure West

Last reported at 2014-Aug-20 10:15 UTC. Time now 2014-Aug-20 10:45 UTC.
Position N 52°09' E 003°29'.

Length 144 m; draft 8.8 m.

Type: Tanker. MMSI: 231775000.

Date/timePositionNaut miles runAvg speedWind from/ knotsBaromVisibWave heightAir tempDewpointWater temp
2014-Aug-20 10:15N 52°09' E 003°29'3 0.5
2014-Aug-20 04:09N 52°09' E 003°34'0 0.0
2014-Aug-19 20:12N 52°09' E 003°34'0 0.1
2014-Aug-19 19:27N 52°09' E 003°34'0 0.0
2014-Aug-19 15:33N 52°09' E 003°34'0 0.0
2014-Aug-19 13:15N 52°09' E 003°34'0 0.0
2014-Aug-19 05:27N 52°09' E 003°34'0 0.0
2014-Aug-18 21:20N 52°09' E 003°34'174 5.6
2014-Aug-17 14:04N 54°12' E 007°01'3 5.4
2014-Aug-17 13:33N 54°12' E 007°05'5 4.7
2014-Aug-17 12:33N 54°12' E 007°13'5 4.9
2014-Aug-17 11:33N 54°12' E 007°22'6 5.7
2014-Aug-17 10:33N 54°12' E 007°31'7 7.2
2014-Aug-17 09:33N 54°09' E 007°43'9 8.8
2014-Aug-17 08:33N 54°04' E 007°56'11 9.4
2014-Aug-17 07:26N 54°01' E 008°13'1011.4
2014-Aug-17 06:32N 53°59' E 008°30'1111.0
2014-Aug-17 05:33N 53°52' E 008°44'9 9.0
2014-Aug-17 04:33N 53°51' E 008°59'6 6.1
2014-Aug-17 03:33N 53°54' E 009°09'2 1.9
2014-Aug-17 02:33N 53°55' E 009°11'7 6.9
2014-Aug-17 01:33N 54°01' E 009°18'7 6.9
2014-Aug-17 00:33N 54°08' E 009°20'8 6.7
2014-Aug-16 23:25N 54°11' E 009°31'6 6.6
2014-Aug-16 22:30N 54°16' E 009°38'71 6.9
2014-Aug-16 12:14N 54°30' E 011°37'811.5
2014-Aug-16 11:33N 54°27' E 011°49'1211.9
2014-Aug-16 10:33N 54°27' E 012°10'1211.6
2014-Aug-16 09:33N 54°37' E 012°17'1413.0
2014-Aug-16 08:30N 54°45' E 012°37'1212.4
2014-Aug-16 07:33N 54°47' E 012°57'1312.8
2014-Aug-16 06:33N 54°46' E 013°19'1212.1
2014-Aug-16 05:33N 54°45' E 013°40'1212.2
2014-Aug-16 04:33N 54°42' E 013°60'13912.4
2014-Aug-15 17:19N 54°59' E 017°60'911.9
2014-Aug-15 16:33N 54°59' E 018°16'1212.5
2014-Aug-15 15:33N 54°57' E 018°37'1312.8
2014-Aug-15 14:33N 54°54' E 018°59'1414.0
2014-Aug-15 13:33N 54°49' E 019°22'1312.8
2014-Aug-15 12:33N 54°43' E 019°41'10 0.5
2014-Aug-14 15:25N 54°38' E 019°55'5 5.9
2014-Aug-14 14:31N 54°39' E 019°46'0 0.1
2014-Aug-14 13:22N 54°39' E 019°46'0 0.0
2014-Aug-14 12:28N 54°39' E 019°46'0 0.1
2014-Aug-14 11:29N 54°39' E 019°46'6 6.5
2014-Aug-14 10:34N 54°43' E 019°39'1110.6
2014-Aug-14 09:34N 54°47' E 019°22'1110.6
2014-Aug-14 08:34N 54°51' E 019°05'1110.6
2014-Aug-14 07:34N 54°54' E 018°47'1110.6
2014-Aug-14 06:34N 54°57' E 018°29'1111.0
2014-Aug-14 05:33N 54°57' E 018°10'1110.8
2014-Aug-14 04:34N 54°56' E 017°51'1111.0
2014-Aug-14 03:33N 54°54' E 017°32'4511.2
2014-Aug-13 23:33N 54°46' E 016°16'1211.4
2014-Aug-13 22:29N 54°44' E 015°56'2511.1
2014-Aug-13 20:15N 54°40' E 015°13'710.9
2014-Aug-13 19:33N 54°39' E 015°00'1111.0
2014-Aug-13 18:33N 54°37' E 014°42'1110.9
2014-Aug-13 17:33N 54°36' E 014°23'1110.6
2014-Aug-13 16:34N 54°39' E 014°06'1111.1
2014-Aug-13 15:34N 54°42' E 013°47'1110.7
2014-Aug-13 14:34N 54°45' E 013°29'1111.3
2014-Aug-13 13:33N 54°45' E 013°09'1211.9
2014-Aug-13 12:33N 54°45' E 012°49'1211.7
2014-Aug-13 11:33N 54°40' E 012°31'1211.8
2014-Aug-13 10:34N 54°31' E 012°17'1110.6
2014-Aug-13 09:33N 54°25' E 012°02'1212.2
2014-Aug-13 08:33N 54°26' E 011°41'73 8.1
2014-Aug-12 23:32N 54°16' E 009°38'6 6.3
2014-Aug-12 22:33N 54°11' E 009°30'8 7.7
2014-Aug-12 21:34N 54°07' E 009°20'4 4.2
2014-Aug-12 20:33N 54°02' E 009°18'5 4.7
2014-Aug-12 19:33N 53°58' E 009°16'2 1.9
2014-Aug-12 18:34N 53°57' E 009°14'4 4.1
2014-Aug-12 17:34N 53°54' E 009°09'2 2.0
2014-Aug-12 16:34N 53°53' E 009°06'6 6.4
2014-Aug-12 15:33N 53°51' E 008°55'1312.7
2014-Aug-12 14:33N 53°57' E 008°37'1413.3
2014-Aug-12 13:33N 53°59' E 008°14'1312.8
2014-Aug-12 12:33N 53°58' E 007°53'5713.7
2014-Aug-12 08:22N 53°44' E 006°19'1114.0
2014-Aug-12 07:33N 53°41' E 006°01'1413.9
2014-Aug-12 06:33N 53°36' E 005°39'1414.1
2014-Aug-12 05:34N 53°32' E 005°16'1414.3
2014-Aug-12 04:34N 53°26' E 004°54'1312.7
2014-Aug-12 03:34N 53°18' E 004°38'1313.1
2014-Aug-12 02:33N 53°06' E 004°28'1312.5
2014-Aug-12 01:33N 52°55' E 004°18'1211.9
2014-Aug-12 00:34N 52°45' E 004°06'1211.8
2014-Aug-11 23:34N 52°37' E 003°54'1211.5
2014-Aug-11 22:32N 52°27' E 003°41'3811.4
2014-Aug-11 19:10N 51°51' E 003°20'812.4
2014-Aug-11 18:30N 51°44' E 003°13'1313.4
2014-Aug-11 17:33N 51°34' E 003°25'1211.6
2014-Aug-11 16:33N 51°26' E 003°39'1211.8
2014-Aug-11 15:33N 51°24' E 003°57'10 9.6
2014-Aug-11 14:34N 51°24' E 004°13'4 4.0
2014-Aug-11 13:34N 51°21' E 004°17'0 0.3
2014-Aug-11 12:34N 51°21' E 004°18'4 3.9
2014-Aug-11 11:33N 51°17' E 004°20'0 0.0
2014-Aug-11 09:33N 51°17' E 004°20'0 0.0
2014-Aug-11 08:33N 51°17' E 004°20'0 0.0
2014-Aug-11 07:33N 51°17' E 004°20'0 0.0
2014-Aug-11 06:30N 51°17' E 004°20'0 0.0
2014-Aug-11 05:30N 51°17' E 004°20'0 0.0
2014-Aug-11 04:33N 51°17' E 004°20'0 0.0
2014-Aug-11 03:33N 51°17' E 004°20'0 0.0
2014-Aug-11 02:30N 51°17' E 004°20'0 0.0
2014-Aug-11 01:21N 51°17' E 004°20'0 0.0
2014-Aug-11 00:30N 51°17' E 004°20'0 0.0
2014-Aug-10 23:24N 51°17' E 004°20'0 0.0
2014-Aug-10 22:18N 51°17' E 004°20'0 0.0
2014-Aug-10 21:30N 51°17' E 004°20'0 0.0
2014-Aug-10 20:18N 51°17' E 004°20'0 0.0
2014-Aug-10 19:30N 51°17' E 004°20'0 0.0
2014-Aug-10 18:30N 51°17' E 004°20'0 0.0
2014-Aug-10 17:27N 51°17' E 004°20'0 0.0
2014-Aug-10 16:33N 51°17' E 004°20'0 0.0
2014-Aug-10 15:33N 51°17' E 004°20'0 0.0
2014-Aug-10 14:33N 51°17' E 004°20'0 0.0
2014-Aug-10 13:30N 51°17' E 004°20'0 0.0
2014-Aug-10 12:15N 51°17' E 004°20'0 0.0
2014-Aug-10 11:18N 51°17' E 004°20'0 0.0
2014-Aug-10 10:30N 51°17' E 004°20'  
Track history (hours):
 
Tides and Currents Weather Stations Pressure Air Temp Water Temp Dewpoint Dewpoint Depression Visibility Wind Speed Wind Dir Waves Ship Positions

Fure West

Last reported at 2014-Aug-20 10:15 UTC. Time now 2014-Aug-20 10:45 UTC.
Position N 52°09' E 003°29'.

Length 144 m; draft 8.8 m.

Type: Tanker. MMSI: 231775000.

Date/timePositionNaut miles runAvg speedWind from/ knotsBaromVisibWave heightAir tempDewpointWater temp
2014-Aug-20 10:15N 52°09' E 003°29'3 0.5
2014-Aug-20 04:09N 52°09' E 003°34'0 0.0
2014-Aug-19 20:12N 52°09' E 003°34'0 0.1
2014-Aug-19 19:27N 52°09' E 003°34'0 0.0
2014-Aug-19 15:33N 52°09' E 003°34'0 0.0
2014-Aug-19 13:15N 52°09' E 003°34'0 0.0
2014-Aug-19 05:27N 52°09' E 003°34'0 0.0
2014-Aug-18 21:20N 52°09' E 003°34'174 5.6
2014-Aug-17 14:04N 54°12' E 007°01'3 5.4
2014-Aug-17 13:33N 54°12' E 007°05'5 4.7
2014-Aug-17 12:33N 54°12' E 007°13'5 4.9
2014-Aug-17 11:33N 54°12' E 007°22'6 5.7
2014-Aug-17 10:33N 54°12' E 007°31'7 7.2
2014-Aug-17 09:33N 54°09' E 007°43'9 8.8
2014-Aug-17 08:33N 54°04' E 007°56'11 9.4
2014-Aug-17 07:26N 54°01' E 008°13'1011.4
2014-Aug-17 06:32N 53°59' E 008°30'1111.0
2014-Aug-17 05:33N 53°52' E 008°44'9 9.0
2014-Aug-17 04:33N 53°51' E 008°59'6 6.1
2014-Aug-17 03:33N 53°54' E 009°09'2 1.9
2014-Aug-17 02:33N 53°55' E 009°11'7 6.9
2014-Aug-17 01:33N 54°01' E 009°18'7 6.9
2014-Aug-17 00:33N 54°08' E 009°20'8 6.7
2014-Aug-16 23:25N 54°11' E 009°31'6 6.6
2014-Aug-16 22:30N 54°16' E 009°38'71 6.9
2014-Aug-16 12:14N 54°30' E 011°37'811.5
2014-Aug-16 11:33N 54°27' E 011°49'1211.9
2014-Aug-16 10:33N 54°27' E 012°10'1211.6
2014-Aug-16 09:33N 54°37' E 012°17'1413.0
2014-Aug-16 08:30N 54°45' E 012°37'1212.4
2014-Aug-16 07:33N 54°47' E 012°57'1312.8
2014-Aug-16 06:33N 54°46' E 013°19'1212.1
2014-Aug-16 05:33N 54°45' E 013°40'1212.2
2014-Aug-16 04:33N 54°42' E 013°60'13912.4
2014-Aug-15 17:19N 54°59' E 017°60'911.9
2014-Aug-15 16:33N 54°59' E 018°16'1212.5
2014-Aug-15 15:33N 54°57' E 018°37'1312.8
2014-Aug-15 14:33N 54°54' E 018°59'1414.0
2014-Aug-15 13:33N 54°49' E 019°22'1312.8
2014-Aug-15 12:33N 54°43' E 019°41'10 0.5
2014-Aug-14 15:25N 54°38' E 019°55'5 5.9
2014-Aug-14 14:31N 54°39' E 019°46'0 0.1
2014-Aug-14 13:22N 54°39' E 019°46'0 0.0
2014-Aug-14 12:28N 54°39' E 019°46'0 0.1
2014-Aug-14 11:29N 54°39' E 019°46'6 6.5
2014-Aug-14 10:34N 54°43' E 019°39'1110.6
2014-Aug-14 09:34N 54°47' E 019°22'1110.6
2014-Aug-14 08:34N 54°51' E 019°05'1110.6
2014-Aug-14 07:34N 54°54' E 018°47'1110.6
2014-Aug-14 06:34N 54°57' E 018°29'1111.0
2014-Aug-14 05:33N 54°57' E 018°10'1110.8
2014-Aug-14 04:34N 54°56' E 017°51'1111.0
2014-Aug-14 03:33N 54°54' E 017°32'4511.2
2014-Aug-13 23:33N 54°46' E 016°16'1211.4
2014-Aug-13 22:29N 54°44' E 015°56'2511.1
2014-Aug-13 20:15N 54°40' E 015°13'710.9
2014-Aug-13 19:33N 54°39' E 015°00'1111.0
2014-Aug-13 18:33N 54°37' E 014°42'1110.9
2014-Aug-13 17:33N 54°36' E 014°23'1110.6
2014-Aug-13 16:34N 54°39' E 014°06'1111.1
2014-Aug-13 15:34N 54°42' E 013°47'1110.7
2014-Aug-13 14:34N 54°45' E 013°29'1111.3
2014-Aug-13 13:33N 54°45' E 013°09'1211.9
2014-Aug-13 12:33N 54°45' E 012°49'1211.7
2014-Aug-13 11:33N 54°40' E 012°31'1211.8
2014-Aug-13 10:34N 54°31' E 012°17'1110.6
2014-Aug-13 09:33N 54°25' E 012°02'1212.2
2014-Aug-13 08:33N 54°26' E 011°41'73 8.1
2014-Aug-12 23:32N 54°16' E 009°38'6 6.3
2014-Aug-12 22:33N 54°11' E 009°30'8 7.7
2014-Aug-12 21:34N 54°07' E 009°20'4 4.2
2014-Aug-12 20:33N 54°02' E 009°18'5 4.7
2014-Aug-12 19:33N 53°58' E 009°16'2 1.9
2014-Aug-12 18:34N 53°57' E 009°14'4 4.1
2014-Aug-12 17:34N 53°54' E 009°09'2 2.0
2014-Aug-12 16:34N 53°53' E 009°06'6 6.4
2014-Aug-12 15:33N 53°51' E 008°55'1312.7
2014-Aug-12 14:33N 53°57' E 008°37'1413.3
2014-Aug-12 13:33N 53°59' E 008°14'1312.8
2014-Aug-12 12:33N 53°58' E 007°53'5713.7
2014-Aug-12 08:22N 53°44' E 006°19'1114.0
2014-Aug-12 07:33N 53°41' E 006°01'1413.9
2014-Aug-12 06:33N 53°36' E 005°39'1414.1
2014-Aug-12 05:34N 53°32' E 005°16'1414.3
2014-Aug-12 04:34N 53°26' E 004°54'1312.7
2014-Aug-12 03:34N 53°18' E 004°38'1313.1
2014-Aug-12 02:33N 53°06' E 004°28'1312.5
2014-Aug-12 01:33N 52°55' E 004°18'1211.9
2014-Aug-12 00:34N 52°45' E 004°06'1211.8
2014-Aug-11 23:34N 52°37' E 003°54'1211.5
2014-Aug-11 22:32N 52°27' E 003°41'3811.4
2014-Aug-11 19:10N 51°51' E 003°20'812.4
2014-Aug-11 18:30N 51°44' E 003°13'1313.4
2014-Aug-11 17:33N 51°34' E 003°25'1211.6
2014-Aug-11 16:33N 51°26' E 003°39'1211.8
2014-Aug-11 15:33N 51°24' E 003°57'10 9.6
2014-Aug-11 14:34N 51°24' E 004°13'4 4.0
2014-Aug-11 13:34N 51°21' E 004°17'0 0.3
2014-Aug-11 12:34N 51°21' E 004°18'4 3.9
2014-Aug-11 11:33N 51°17' E 004°20'0 0.0
2014-Aug-11 09:33N 51°17' E 004°20'0 0.0
2014-Aug-11 08:33N 51°17' E 004°20'0 0.0
2014-Aug-11 07:33N 51°17' E 004°20'0 0.0
2014-Aug-11 06:30N 51°17' E 004°20'0 0.0
2014-Aug-11 05:30N 51°17' E 004°20'0 0.0
2014-Aug-11 04:33N 51°17' E 004°20'0 0.0
2014-Aug-11 03:33N 51°17' E 004°20'0 0.0
2014-Aug-11 02:30N 51°17' E 004°20'0 0.0
2014-Aug-11 01:21N 51°17' E 004°20'0 0.0
2014-Aug-11 00:30N 51°17' E 004°20'0 0.0
2014-Aug-10 23:24N 51°17' E 004°20'0 0.0
2014-Aug-10 22:18N 51°17' E 004°20'0 0.0
2014-Aug-10 21:30N 51°17' E 004°20'0 0.0
2014-Aug-10 20:18N 51°17' E 004°20'0 0.0
2014-Aug-10 19:30N 51°17' E 004°20'0 0.0
2014-Aug-10 18:30N 51°17' E 004°20'0 0.0
2014-Aug-10 17:27N 51°17' E 004°20'0 0.0
2014-Aug-10 16:33N 51°17' E 004°20'0 0.0
2014-Aug-10 15:33N 51°17' E 004°20'0 0.0
2014-Aug-10 14:33N 51°17' E 004°20'0 0.0
2014-Aug-10 13:30N 51°17' E 004°20'0 0.0
2014-Aug-10 12:15N 51°17' E 004°20'0 0.0
2014-Aug-10 11:18N 51°17' E 004°20'0 0.0
2014-Aug-10 10:30N 51°17' E 004°20'  

Dump ship's entire track history